createdAt,value
2024-03-08T00:01:01.648Z,3
2024-03-08T00:05:01.824Z,4
2024-03-08T00:07:01.884Z,4
2024-03-08T00:11:02.127Z,4
2024-03-08T00:13:02.171Z,5
2024-03-08T00:15:02.316Z,3
2024-03-08T00:17:02.500Z,3
2024-03-08T00:19:02.578Z,4
2024-03-08T00:21:02.741Z,4
2024-03-08T00:25:02.732Z,3
2024-03-08T00:29:02.882Z,4
2024-03-08T00:31:02.988Z,4
2024-03-08T00:33:03.189Z,4
2024-03-08T00:35:03.195Z,4
2024-03-08T00:37:03.260Z,3
2024-03-08T00:39:03.504Z,3
2024-03-08T00:41:03.562Z,3
2024-03-08T00:43:03.749Z,2
2024-03-08T00:45:03.750Z,2
2024-03-08T00:47:03.749Z,2
2024-03-08T00:49:03.927Z,2
2024-03-08T00:51:03.980Z,2
2024-03-08T00:53:04.017Z,2
2024-03-08T00:55:04.130Z,2
2024-03-08T00:59:04.336Z,2
2024-03-08T01:01:04.444Z,2
2024-03-08T01:09:04.788Z,3
2024-03-08T01:11:04.903Z,3
2024-03-08T01:13:04.937Z,3
2024-03-08T01:15:05.033Z,3
2024-03-08T01:17:05.156Z,4
2024-03-08T01:19:05.696Z,4
2024-03-08T01:21:05.403Z,4
2024-03-08T01:23:05.387Z,4
2024-03-08T01:25:05.505Z,4
2024-03-08T01:29:05.631Z,5
2024-03-08T01:31:05.763Z,4
2024-03-08T01:33:05.973Z,5
2024-03-08T01:35:05.914Z,5
2024-03-08T01:37:05.996Z,5
2024-03-08T01:39:06.172Z,5
2024-03-08T01:41:06.169Z,6
2024-03-08T01:43:06.295Z,6
2024-03-08T01:45:06.404Z,6
2024-03-08T01:47:06.652Z,6
2024-03-08T01:49:06.530Z,6
2024-03-08T01:51:06.791Z,6
2024-03-08T01:53:06.702Z,7
2024-03-08T01:55:06.790Z,7
2024-03-08T01:57:06.953Z,8
2024-03-08T01:59:06.974Z,7
2024-03-08T02:01:07.123Z,6
2024-03-08T02:03:07.247Z,7
2024-03-08T02:05:07.272Z,7
2024-03-08T02:07:09.920Z,6
2024-03-08T02:09:07.589Z,6
2024-03-08T02:11:07.530Z,7
2024-03-08T02:15:07.782Z,7
2024-03-08T02:17:07.772Z,7
2024-03-08T02:19:07.842Z,7
2024-03-08T02:21:08.390Z,7
2024-03-08T02:23:08.052Z,7
2024-03-08T02:25:08.108Z,7
2024-03-08T02:27:08.423Z,7
2024-03-08T02:29:08.248Z,7
2024-03-08T02:31:08.324Z,7
2024-03-08T02:33:08.534Z,7
2024-03-08T02:35:08.510Z,6
2024-03-08T02:37:08.591Z,7
2024-03-08T02:39:08.766Z,7
2024-03-08T02:41:38.779Z,7
2024-03-08T02:43:38.902Z,7
2024-03-08T02:45:39.033Z,7
2024-03-08T02:47:39.209Z,7
2024-03-08T02:49:39.230Z,7
2024-03-08T02:51:39.376Z,8
2024-03-08T02:53:39.535Z,7
2024-03-08T02:55:39.598Z,7
2024-03-08T02:57:39.740Z,7
2024-03-08T02:59:39.898Z,7
2024-03-08T03:01:39.959Z,8
2024-03-08T03:05:40.233Z,8
2024-03-08T03:07:40.303Z,8
2024-03-08T03:09:40.421Z,8
2024-03-08T03:11:40.685Z,7
2024-03-08T03:13:40.678Z,8
2024-03-08T03:15:40.782Z,8
2024-03-08T03:17:40.971Z,8
2024-03-08T03:19:41.011Z,7
2024-03-08T03:21:41.128Z,7
2024-03-08T03:23:41.262Z,8
2024-03-08T03:25:41.318Z,8
2024-03-08T03:27:41.493Z,7
2024-03-08T06:21:37.021Z,9
2024-03-08T06:23:36.719Z,9
2024-03-08T06:25:36.680Z,9
2024-03-08T06:27:36.786Z,9
2024-03-08T06:29:36.904Z,9
2024-03-08T06:31:36.950Z,10
2024-03-08T06:33:37.147Z,9
2024-03-08T06:35:37.197Z,9
2024-03-08T06:37:37.240Z,9
2024-03-08T06:39:37.332Z,8
2024-03-08T06:41:38.151Z,10
2024-03-08T06:43:37.499Z,8
2024-03-08T06:45:37.651Z,8
2024-03-08T06:47:37.736Z,8
2024-03-08T06:49:37.763Z,8
2024-03-08T06:51:37.854Z,9
2024-03-08T06:53:38.060Z,10
2024-03-08T06:55:38.029Z,11
2024-03-08T06:57:38.347Z,11
2024-03-08T06:59:38.361Z,8
2024-03-08T07:01:38.399Z,8
2024-03-08T07:03:38.493Z,9
2024-03-08T07:05:38.599Z,9
2024-03-08T07:07:38.695Z,8
2024-03-08T07:09:38.746Z,8
2024-03-08T07:11:40.044Z,9
2024-03-08T07:13:38.949Z,9
2024-03-08T07:15:39.009Z,9
2024-03-08T07:17:39.153Z,8
2024-03-08T07:19:39.246Z,8
2024-03-08T07:21:39.264Z,9
2024-03-08T07:23:39.396Z,8
2024-03-08T07:25:39.468Z,8
2024-03-08T07:27:39.571Z,8
2024-03-08T07:29:39.670Z,8
2024-03-08T07:31:39.728Z,8
2024-03-08T07:33:39.921Z,8
2024-03-08T07:35:39.906Z,7
2024-03-08T07:37:40.056Z,7
2024-03-08T07:39:40.094Z,7
2024-03-08T07:43:40.251Z,8
2024-03-08T07:45:40.353Z,7
2024-03-08T07:47:40.460Z,9
2024-03-08T07:49:40.534Z,7
2024-03-08T07:51:40.588Z,6
2024-03-08T07:53:40.733Z,7
2024-03-08T07:55:40.830Z,6
2024-03-08T07:57:40.854Z,6
2024-03-08T07:59:40.964Z,10
2024-03-08T08:01:41.093Z,7
2024-03-08T08:03:41.132Z,7
2024-03-08T08:05:41.218Z,9
2024-03-08T08:07:41.369Z,10
2024-03-08T08:12:11.576Z,7
2024-03-08T08:14:11.778Z,7
2024-03-08T08:16:11.763Z,7
2024-03-08T08:18:11.967Z,7
2024-03-08T08:20:12.018Z,7
2024-03-08T08:22:12.246Z,8
2024-03-08T08:24:12.258Z,7
2024-03-08T08:28:12.526Z,8
2024-03-08T08:30:12.806Z,10
2024-03-08T08:32:12.729Z,11
2024-03-08T08:34:12.976Z,8
2024-03-08T08:36:12.960Z,8
2024-03-08T08:38:13.080Z,8
2024-03-08T08:40:13.198Z,8
2024-03-08T08:42:13.279Z,8
2024-03-08T08:44:16.436Z,9
2024-03-08T08:46:13.534Z,9
2024-03-08T08:48:13.720Z,9
2024-03-08T08:50:13.762Z,7
2024-03-08T08:52:17.252Z,8
2024-03-08T08:54:16.238Z,9
2024-03-08T08:56:14.126Z,8
2024-03-08T08:58:14.264Z,8
2024-03-08T09:00:14.346Z,9
2024-03-08T09:02:17.568Z,9
2024-03-08T09:04:14.608Z,9
2024-03-08T09:06:14.659Z,9
2024-03-08T09:08:14.802Z,8
2024-03-08T09:12:15.078Z,6
2024-03-08T09:14:15.217Z,6
2024-03-08T09:16:15.283Z,6
2024-03-08T09:18:15.337Z,6
2024-03-08T09:20:15.432Z,7
2024-03-08T09:22:15.626Z,7
2024-03-08T09:24:15.629Z,6
2024-03-08T09:26:22.874Z,7
2024-03-08T09:28:15.872Z,7
2024-03-08T09:30:15.948Z,6
2024-03-08T09:32:16.049Z,6
2024-03-08T09:34:20.612Z,12
2024-03-08T09:36:16.285Z,11
2024-03-08T09:38:16.345Z,8
2024-03-08T09:40:16.580Z,8
2024-03-08T09:42:16.599Z,9
2024-03-08T09:44:16.686Z,8
2024-03-08T09:46:16.872Z,7
2024-03-08T09:48:16.938Z,7
2024-03-08T09:50:17.123Z,7
2024-03-08T09:52:17.172Z,7
2024-03-08T09:54:20.714Z,7
2024-03-08T09:56:17.385Z,7
2024-03-08T09:58:17.501Z,7
2024-03-08T10:00:17.697Z,8
2024-03-08T10:04:17.872Z,7
2024-03-08T10:06:17.934Z,7
2024-03-08T10:08:18.038Z,5
2024-03-08T10:10:18.270Z,6
2024-03-08T10:12:18.254Z,6
2024-03-08T10:14:19.451Z,6
2024-03-08T10:16:18.483Z,6
2024-03-08T10:18:18.578Z,6
2024-03-08T10:20:18.680Z,6
2024-03-08T10:22:18.788Z,6
2024-03-08T10:24:18.907Z,5
2024-03-08T10:26:18.984Z,7
2024-03-08T10:28:19.128Z,9
2024-03-08T10:30:19.224Z,9
2024-03-08T10:32:19.318Z,8
2024-03-08T10:34:19.503Z,10
2024-03-08T10:36:19.595Z,11
2024-03-08T10:38:19.641Z,8
2024-03-08T10:40:19.826Z,9
2024-03-08T10:42:19.958Z,12
2024-03-08T10:44:19.954Z,15
2024-03-08T10:46:20.099Z,12
2024-03-08T10:48:20.207Z,12
2024-03-08T10:50:20.284Z,11
2024-03-08T10:52:20.436Z,13
2024-03-08T10:54:20.501Z,10
2024-03-08T10:56:20.628Z,8
2024-03-08T10:58:20.697Z,10
2024-03-08T11:00:20.804Z,7
2024-03-08T11:04:21.040Z,11
2024-03-08T11:06:21.118Z,8
2024-03-08T11:08:21.246Z,10
2024-03-08T11:10:21.477Z,9
2024-03-08T11:12:21.422Z,9
2024-03-08T11:14:21.503Z,6
2024-03-08T11:16:21.664Z,6
2024-03-08T11:18:21.764Z,6
2024-03-08T11:22:22.012Z,6
2024-03-08T11:24:22.000Z,6
2024-03-08T11:26:22.133Z,6
2024-03-08T11:28:22.344Z,6
2024-03-08T11:30:22.331Z,7
2024-03-08T11:32:22.431Z,6
2024-03-08T11:36:22.632Z,6
2024-03-08T11:38:22.716Z,6
2024-03-08T11:42:22.903Z,6
2024-03-08T11:44:23.000Z,6
2024-03-08T11:46:23.123Z,6
2024-03-08T11:48:23.228Z,6
2024-03-08T11:50:23.270Z,6
2024-03-08T11:52:23.397Z,6
2024-03-08T11:54:23.501Z,7
2024-03-08T11:56:24.509Z,6
2024-03-08T11:58:23.698Z,7
2024-03-08T12:02:23.997Z,6
2024-03-08T12:04:24.035Z,6
2024-03-08T12:06:24.113Z,7
2024-03-08T12:08:24.191Z,7
2024-03-08T12:10:24.467Z,6
2024-03-08T12:12:24.396Z,6
2024-03-08T12:16:24.595Z,6
2024-03-08T12:18:24.683Z,7
2024-03-08T12:20:24.740Z,7
2024-03-08T12:22:24.869Z,6
2024-03-08T12:24:24.936Z,6
2024-03-08T12:26:25.084Z,6
2024-03-08T12:30:25.241Z,5
2024-03-08T12:32:25.334Z,6
2024-03-08T12:34:25.499Z,9
2024-03-08T12:36:25.572Z,8
2024-03-08T12:38:25.653Z,5
2024-03-08T12:40:25.784Z,7
2024-03-08T12:42:25.828Z,6
2024-03-08T12:44:26.002Z,5
2024-03-08T12:46:26.043Z,5
2024-03-08T12:48:26.222Z,6
2024-03-08T12:50:26.231Z,6
2024-03-08T12:52:26.430Z,8
2024-03-08T12:54:26.512Z,7
2024-03-08T12:56:26.511Z,10
2024-03-08T12:58:26.696Z,8
2024-03-08T13:00:26.721Z,7
2024-03-08T13:02:26.878Z,5
2024-03-08T13:04:27.058Z,5
2024-03-08T13:06:27.023Z,6
2024-03-08T13:08:27.096Z,6
2024-03-08T13:10:27.220Z,7
2024-03-08T13:12:27.289Z,7
2024-03-08T13:14:27.394Z,7
2024-03-08T13:16:27.520Z,6
2024-03-08T13:18:27.680Z,5
2024-03-08T13:20:31.391Z,5
2024-03-08T13:22:27.784Z,9
2024-03-08T13:24:27.876Z,5
2024-03-08T13:26:27.981Z,7
2024-03-08T13:28:28.042Z,7
2024-03-08T13:30:28.161Z,6
2024-03-08T13:32:28.245Z,7
2024-03-08T13:34:28.330Z,8
2024-03-08T13:36:28.407Z,6
2024-03-08T13:38:28.477Z,5
2024-03-08T13:40:28.606Z,5
2024-03-08T13:42:28.638Z,5
2024-03-08T13:44:28.750Z,5
2024-03-08T13:46:28.830Z,6
2024-03-08T13:48:28.913Z,7
2024-03-08T13:50:29.029Z,9
2024-03-08T13:52:29.113Z,8
2024-03-08T13:54:29.162Z,5
2024-03-08T13:56:29.267Z,5
2024-03-08T14:00:59.548Z,18
2024-03-08T14:02:59.743Z,5
2024-03-08T14:04:59.832Z,7
2024-03-08T14:07:01.660Z,8
2024-03-08T14:09:00.030Z,12
2024-03-08T14:11:00.180Z,9
2024-03-08T14:13:00.184Z,6
2024-03-08T14:15:00.319Z,7
2024-03-08T14:17:00.519Z,7
2024-03-08T14:19:02.409Z,7
2024-03-08T14:23:00.800Z,8
2024-03-08T14:25:03.703Z,8
2024-03-08T14:27:00.973Z,9
2024-03-08T14:29:01.151Z,8
2024-03-08T14:31:03.593Z,7
2024-03-08T14:33:01.386Z,7
2024-03-08T14:35:01.458Z,8
2024-03-08T14:37:03.097Z,8
2024-03-08T14:39:01.612Z,8
2024-03-08T14:41:01.762Z,10
2024-03-08T14:43:04.639Z,7
2024-03-08T14:45:01.908Z,7
2024-03-08T14:47:02.224Z,6
2024-03-08T14:49:02.140Z,7
2024-03-08T14:51:02.309Z,11
2024-03-08T14:53:02.610Z,6
2024-03-08T14:55:02.480Z,8
2024-03-08T14:57:02.549Z,12
2024-03-08T14:59:02.719Z,9
2024-03-08T15:01:02.813Z,9
2024-03-08T15:03:02.909Z,8
2024-03-08T15:05:03.086Z,10
2024-03-08T15:07:03.120Z,14
2024-03-08T15:09:03.206Z,14
2024-03-08T15:11:03.422Z,15
2024-03-08T15:13:03.475Z,11
2024-03-08T15:15:03.525Z,10
2024-03-08T15:17:03.752Z,9
2024-03-08T15:19:03.769Z,10
2024-03-08T15:21:03.864Z,9
2024-03-08T15:23:04.035Z,10
2024-03-08T15:25:04.076Z,12
2024-03-08T15:27:04.176Z,10
2024-03-08T15:29:04.298Z,15
2024-03-08T15:31:04.394Z,14
2024-03-08T15:33:04.697Z,13
2024-03-08T15:35:04.647Z,12
2024-03-08T15:37:04.752Z,13
2024-03-08T15:39:04.818Z,13
2024-03-08T15:41:05.261Z,13
2024-03-08T15:43:05.107Z,13
2024-03-08T15:45:05.146Z,13
2024-03-08T15:47:05.289Z,13
2024-03-08T15:49:05.332Z,13
2024-03-08T15:51:05.455Z,13
2024-03-08T15:53:05.600Z,14
2024-03-08T15:55:05.680Z,17
2024-03-08T15:57:05.738Z,15
2024-03-08T15:59:05.850Z,13
2024-03-08T16:01:05.992Z,12
2024-03-08T16:03:06.053Z,12
2024-03-08T16:05:06.220Z,14
2024-03-08T16:07:06.328Z,14
2024-03-08T16:09:06.358Z,14
2024-03-08T16:11:06.577Z,14
2024-03-08T16:13:06.545Z,14
2024-03-08T16:15:06.730Z,16
2024-03-08T16:17:06.780Z,18
2024-03-08T16:19:06.872Z,19
2024-03-08T16:21:07.012Z,23
2024-03-08T16:23:07.058Z,26
2024-03-08T16:25:07.234Z,21
2024-03-08T16:27:07.296Z,19
2024-03-08T16:29:07.527Z,22
2024-03-08T16:31:07.496Z,18
2024-03-08T16:33:07.682Z,30
2024-03-08T16:35:07.716Z,20
2024-03-08T16:37:07.804Z,20
2024-03-08T16:39:07.869Z,21
2024-03-08T16:41:08.142Z,20
2024-03-08T16:43:08.116Z,20
2024-03-08T16:45:08.174Z,16
2024-03-08T16:47:08.374Z,15
2024-03-08T16:49:08.362Z,19
2024-03-08T16:51:08.484Z,19
2024-03-08T16:53:08.620Z,18
2024-03-08T16:55:08.715Z,20
2024-03-08T16:57:08.837Z,18
2024-03-08T16:59:08.982Z,24
2024-03-08T17:01:08.991Z,18
2024-03-08T17:03:09.085Z,16
2024-03-08T17:05:09.182Z,15
2024-03-08T17:09:09.396Z,15
2024-03-08T17:11:09.609Z,13
2024-03-08T17:13:09.787Z,13
2024-03-08T17:15:09.696Z,18
2024-03-08T17:17:09.853Z,17
2024-03-08T17:19:09.869Z,18
2024-03-08T17:21:09.959Z,19
2024-03-08T17:23:10.161Z,14
2024-03-08T17:25:10.175Z,15
2024-03-08T17:27:10.284Z,15
2024-03-08T17:29:10.380Z,14
2024-03-08T17:31:10.468Z,13
2024-03-08T17:33:10.569Z,13
2024-03-08T17:37:10.732Z,14
2024-03-08T17:39:10.880Z,15
2024-03-08T17:41:11.036Z,16
2024-03-08T17:43:11.029Z,17
2024-03-08T17:45:11.121Z,21
2024-03-08T17:47:11.249Z,18
2024-03-08T17:49:11.328Z,15
2024-03-08T17:51:11.404Z,13
2024-03-08T17:53:11.874Z,12
2024-03-08T17:55:11.593Z,12
2024-03-08T17:57:11.696Z,12
2024-03-08T17:59:11.846Z,14
2024-03-08T18:01:11.967Z,16
2024-03-08T18:03:12.020Z,19
2024-03-08T18:05:12.103Z,27
2024-03-08T18:07:12.161Z,20
2024-03-08T18:09:12.289Z,26
2024-03-08T18:11:12.383Z,18
2024-03-08T18:13:12.446Z,20
2024-03-08T18:15:12.537Z,40
2024-03-08T18:17:12.663Z,16
2024-03-08T18:19:12.730Z,17
2024-03-08T18:21:12.958Z,25
2024-03-08T18:23:12.896Z,29
2024-03-08T18:25:13.004Z,36
2024-03-08T18:27:13.085Z,60
2024-03-08T18:29:13.204Z,57
2024-03-08T18:31:13.260Z,43
2024-03-08T18:33:13.864Z,43
2024-03-08T18:35:13.461Z,25
2024-03-08T18:37:13.552Z,21
2024-03-08T18:39:13.642Z,21
2024-03-08T18:41:13.851Z,21
2024-03-08T18:43:13.900Z,24
2024-03-08T18:45:13.930Z,23
2024-03-08T18:47:14.084Z,23
2024-03-08T18:49:14.079Z,24
2024-03-08T18:51:14.197Z,17
2024-03-08T18:53:14.474Z,20
2024-03-08T18:55:14.352Z,21
2024-03-08T18:57:14.611Z,20
2024-03-08T18:59:14.542Z,21
2024-03-08T19:01:14.734Z,22
2024-03-08T19:03:14.969Z,19
2024-03-08T19:05:14.812Z,20
2024-03-08T19:07:14.930Z,17
2024-03-08T19:09:15.029Z,20
2024-03-08T19:11:15.267Z,18
2024-03-08T19:13:15.714Z,18
2024-03-08T19:15:15.278Z,15
2024-03-08T19:17:15.374Z,16
2024-03-08T19:19:15.450Z,14
2024-03-08T19:21:15.536Z,15
2024-03-08T19:23:15.626Z,15
2024-03-08T19:25:15.714Z,13
2024-03-08T19:27:15.801Z,14
2024-03-08T19:29:15.912Z,15
2024-03-08T19:31:15.967Z,16
2024-03-08T19:33:16.104Z,32
2024-03-08T19:35:16.178Z,35
2024-03-08T19:37:16.268Z,37
2024-03-08T19:39:16.345Z,34
2024-03-08T19:41:16.484Z,30
2024-03-08T19:43:17.242Z,26
2024-03-08T19:45:16.684Z,23
2024-03-08T19:47:16.716Z,25
2024-03-08T19:49:16.926Z,26
2024-03-08T19:51:17.008Z,27
2024-03-08T19:53:18.051Z,27
2024-03-08T19:55:17.025Z,25
2024-03-08T19:57:17.124Z,24
2024-03-08T19:59:17.184Z,19
2024-03-08T20:01:17.300Z,21
2024-03-08T20:03:17.357Z,24
2024-03-08T20:05:17.457Z,24
2024-03-08T20:07:17.528Z,24
2024-03-08T20:11:17.738Z,23
2024-03-08T20:13:17.801Z,24
2024-03-08T20:15:18.022Z,26
2024-03-08T20:17:17.986Z,29
2024-03-08T20:19:18.056Z,25
2024-03-08T20:21:18.156Z,25
2024-03-08T20:23:18.261Z,23
2024-03-08T20:25:18.393Z,22
2024-03-08T20:27:18.527Z,21
2024-03-08T20:29:18.504Z,22
2024-03-08T20:31:18.719Z,21
2024-03-08T20:33:18.692Z,22
2024-03-08T20:35:18.778Z,24
2024-03-08T20:37:18.841Z,27
2024-03-08T20:39:18.956Z,28
2024-03-08T20:41:19.083Z,25
2024-03-08T20:43:19.336Z,24
2024-03-08T20:45:19.330Z,24
2024-03-08T20:47:19.289Z,23
2024-03-08T20:49:19.413Z,24
2024-03-08T20:51:19.469Z,23
2024-03-08T20:53:19.743Z,27
2024-03-08T20:55:19.740Z,27
2024-03-08T20:57:19.740Z,30
2024-03-08T20:59:49.904Z,31
2024-03-08T21:03:50.256Z,23
2024-03-08T21:05:50.245Z,24
2024-03-08T21:07:50.391Z,20
2024-03-08T21:09:50.471Z,17
2024-03-08T21:11:50.684Z,17
2024-03-08T21:13:50.765Z,18
2024-03-08T21:15:50.835Z,16
2024-03-08T21:17:50.945Z,15
2024-03-08T21:19:51.129Z,14
2024-03-08T21:21:51.272Z,15
2024-03-08T21:23:51.274Z,15
2024-03-08T21:25:51.471Z,14
2024-03-08T21:27:51.502Z,15
2024-03-08T21:29:51.626Z,19
2024-03-08T21:31:51.763Z,21
2024-03-08T21:33:52.120Z,20
2024-03-08T21:35:52.072Z,19
2024-03-08T21:37:52.247Z,18
2024-03-08T21:39:52.217Z,15
2024-03-08T21:41:52.355Z,14
2024-03-08T21:43:52.482Z,15
2024-03-08T21:45:52.575Z,16
2024-03-08T21:47:52.759Z,14
2024-03-08T21:49:52.837Z,14
2024-03-08T21:51:52.907Z,15
2024-03-08T21:53:53.049Z,14
2024-03-08T21:55:53.210Z,17
2024-03-08T21:57:53.275Z,16
2024-03-08T21:59:53.364Z,18
2024-03-08T22:01:53.526Z,17
2024-03-08T22:03:53.597Z,18
2024-03-08T22:05:53.692Z,17
2024-03-08T22:07:53.912Z,15
2024-03-08T22:11:54.133Z,14
2024-03-08T22:13:54.253Z,15
2024-03-08T22:15:54.320Z,15
2024-03-08T22:17:54.465Z,17
2024-03-08T22:19:54.601Z,17
2024-03-08T22:21:54.650Z,18
2024-03-08T22:23:54.745Z,18
2024-03-08T22:25:54.954Z,18
2024-03-08T22:27:55.027Z,17
2024-03-08T22:29:56.998Z,18
2024-03-08T22:31:55.235Z,17
2024-03-08T22:33:55.317Z,16
2024-03-08T22:35:55.423Z,15
2024-03-08T22:37:56.059Z,17
2024-03-08T22:39:56.688Z,19
2024-03-08T22:41:55.753Z,21
2024-03-08T22:43:55.965Z,21
2024-03-08T22:45:56.015Z,20
2024-03-08T22:47:56.215Z,29
2024-03-08T22:49:56.855Z,32
2024-03-08T22:51:56.403Z,36
2024-03-08T22:53:56.473Z,23
2024-03-08T22:55:56.641Z,21
2024-03-08T22:57:56.736Z,18
2024-03-08T22:59:56.820Z,17
2024-03-08T23:01:56.988Z,17
2024-03-08T23:03:57.380Z,20
2024-03-08T23:05:57.171Z,21
2024-03-08T23:07:57.327Z,18
2024-03-08T23:09:57.473Z,18
2024-03-08T23:11:57.584Z,19
2024-03-08T23:13:57.701Z,17
2024-03-08T23:15:57.748Z,17
2024-03-08T23:17:58.261Z,18
2024-03-08T23:19:58.002Z,16
2024-03-08T23:21:58.022Z,16
2024-03-08T23:23:58.166Z,18
2024-03-08T23:25:58.323Z,15
2024-03-08T23:27:58.372Z,16
2024-03-08T23:29:58.487Z,15
2024-03-08T23:31:58.649Z,14
2024-03-08T23:33:58.735Z,13
2024-03-08T23:37:59.086Z,13
2024-03-08T23:39:59.087Z,12
2024-03-08T23:41:59.202Z,11
2024-03-08T23:43:59.320Z,10
2024-03-08T23:45:59.442Z,11
2024-03-08T23:47:59.571Z,11
2024-03-08T23:49:59.694Z,11
2024-03-08T23:51:59.776Z,11
2024-03-08T23:53:59.880Z,14
2024-03-08T23:56:00.007Z,15
2024-03-08T23:58:00.116Z,14
